createdAt,value
2019-04-19T01:56:13.238Z,9.98
2019-04-19T01:57:11.494Z,10.02
2019-04-19T01:59:03.292Z,10.02
2019-04-19T02:00:03.492Z,10.01
2019-04-19T02:02:01.612Z,9.99
2019-04-19T02:02:56.413Z,10.02
2019-04-19T02:04:47.716Z,9.91
2019-04-19T02:05:50.732Z,9.77
2019-04-19T02:07:40.477Z,9.85
2019-04-19T02:08:45.881Z,9.78
2019-04-19T02:10:43.996Z,9.81
2019-04-19T02:11:39.438Z,9.86
2019-04-19T02:13:31.696Z,9.95
2019-04-19T02:14:35.534Z,9.96
2019-04-19T02:16:21.968Z,9.99
2019-04-19T02:17:18.469Z,9.95
2019-04-19T02:19:16.256Z,9.95
2019-04-19T02:20:11.982Z,10.06
2019-04-19T02:22:11.174Z,10.13
2019-04-19T02:23:08.317Z,10.17
2019-04-19T02:24:57.723Z,10.14
2019-04-19T02:26:01.540Z,10.16
2019-04-19T02:27:50.442Z,10.16
2019-04-19T02:28:49.238Z,10.04
2019-04-19T02:30:54.763Z,10.04
2019-04-19T02:32:07.170Z,10.02
2019-04-19T02:34:08.847Z,10.06
2019-04-19T02:35:01.000Z,10.02
2019-04-19T02:37:06.458Z,10.02
2019-04-19T02:37:51.499Z,10.13
2019-04-19T02:41:02.707Z,10.01
2019-04-19T02:42:40.753Z,10.01
2019-04-19T02:43:54.437Z,9.88
2019-04-19T02:45:55.143Z,9.96
2019-04-19T02:46:42.597Z,9.99
2019-04-19T02:48:27.321Z,9.88
2019-04-19T02:49:31.979Z,9.95
2019-04-19T02:51:28.204Z,9.92
2019-04-19T02:52:25.816Z,9.89
2019-04-19T02:54:09.913Z,9.89
2019-04-19T02:55:09.297Z,9.80
2019-04-19T02:57:12.482Z,9.65
2019-04-19T02:58:09.872Z,9.75
2019-04-19T03:00:58.582Z,9.92
2019-04-19T03:03:06.196Z,9.89
2019-04-19T03:03:37.975Z,9.93
2019-04-19T03:05:36.891Z,9.92
2019-04-19T03:06:25.302Z,9.99
2019-04-19T03:08:08.236Z,9.96
2019-04-19T03:09:07.218Z,9.91
2019-04-19T03:11:09.185Z,9.85
2019-04-19T03:12:24.552Z,9.88
2019-04-19T03:14:05.574Z,9.96
2019-04-19T03:15:05.326Z,10.01
2019-04-19T03:17:05.460Z,9.89
2019-04-19T03:18:03.589Z,9.77
2019-04-19T03:19:54.183Z,9.81
2019-04-19T03:20:51.775Z,9.92
2019-04-19T03:22:49.486Z,9.80
2019-04-19T03:23:45.087Z,9.88
2019-04-19T03:25:36.774Z,9.83
2019-04-19T03:26:38.577Z,9.86
2019-04-19T03:28:25.727Z,9.67
2019-04-19T03:29:23.516Z,9.74
2019-04-19T03:32:45.705Z,9.78
2019-04-19T03:34:31.228Z,9.78
2019-04-19T03:35:14.331Z,9.77
2019-04-19T03:37:14.915Z,9.78
2019-04-19T03:38:10.467Z,9.78
2019-04-19T03:40:15.037Z,9.81
2019-04-19T03:41:03.357Z,9.65
2019-04-19T03:42:55.287Z,9.67
2019-04-19T03:43:56.718Z,9.59
2019-04-19T03:45:56.431Z,9.62
2019-04-19T03:48:47.595Z,9.44
2019-04-19T03:49:57.226Z,9.50
2019-04-19T03:51:41.363Z,9.40
2019-04-19T03:52:40.432Z,9.38
2019-04-19T03:54:30.151Z,9.41
2019-04-19T03:55:25.977Z,9.37
2019-04-19T03:57:16.944Z,9.17
2019-04-19T03:58:11.222Z,9.20
2019-04-19T03:59:56.312Z,9.13
2019-04-19T04:00:55.994Z,9.08
2019-04-19T04:02:50.003Z,8.98
2019-04-19T04:03:51.058Z,9.00
2019-04-19T04:05:45.691Z,9.08
2019-04-19T04:06:44.235Z,9.06
2019-04-19T04:08:38.188Z,9.27
2019-04-19T04:09:40.648Z,9.35
2019-04-19T04:11:29.570Z,9.31
2019-04-19T04:12:38.003Z,9.40
2019-04-19T04:14:29.525Z,9.41
2019-04-19T04:15:36.552Z,9.42
2019-04-19T04:17:12.325Z,9.40
2019-04-19T04:18:13.245Z,9.42
2019-04-19T04:20:05.347Z,9.42
2019-04-19T04:21:05.471Z,9.42
2019-04-19T04:23:03.618Z,9.41
2019-04-19T04:24:04.770Z,9.50
2019-04-19T04:25:59.273Z,9.58
2019-04-19T04:27:01.639Z,9.60
2019-04-19T04:28:56.624Z,9.68
2019-04-19T04:29:57.079Z,9.63
2019-04-19T04:31:48.331Z,9.68
2019-04-19T04:32:46.918Z,9.67
2019-04-19T04:34:41.231Z,9.75
2019-04-19T04:35:47.003Z,9.65
2019-04-19T04:37:38.358Z,9.70
2019-04-19T04:38:29.150Z,9.73
2019-04-19T04:40:14.604Z,9.65
2019-04-19T04:41:20.096Z,9.65
2019-04-19T04:43:20.289Z,9.65
2019-04-19T04:44:23.313Z,9.71
2019-04-19T04:46:24.755Z,9.83
2019-04-19T04:47:19.306Z,9.78
2019-04-19T04:49:20.904Z,9.81
2019-04-19T04:50:12.936Z,9.83
2019-04-19T04:51:58.665Z,9.83
2019-04-19T04:52:47.630Z,9.85
2019-04-19T04:54:39.357Z,9.86
2019-04-19T04:55:44.902Z,9.83
2019-04-19T04:57:38.354Z,9.85
2019-04-19T04:58:34.434Z,9.78
2019-04-19T05:00:28.355Z,9.85
2019-04-19T05:01:34.922Z,9.89
2019-04-19T05:03:36.824Z,9.93
2019-04-19T05:04:29.820Z,9.96
2019-04-19T05:06:28.106Z,9.95
2019-04-19T05:07:28.408Z,9.93
2019-04-19T05:09:22.984Z,10.07
2019-04-19T05:10:18.798Z,10.17
2019-04-19T05:12:36.585Z,10.10
2019-04-19T05:15:00.470Z,10.14
2019-04-19T05:16:11.370Z,10.24
2019-04-19T05:18:05.051Z,10.26
2019-04-19T05:18:53.908Z,10.34
2019-04-19T05:20:48.490Z,10.34
2019-04-19T05:21:50.431Z,10.49
2019-04-19T05:23:47.723Z,10.38
2019-04-19T05:24:51.766Z,10.51
2019-04-19T05:27:38.961Z,10.65
2019-04-19T05:29:19.974Z,10.66
2019-04-19T05:30:11.295Z,10.63
2019-04-19T05:32:10.131Z,10.75
2019-04-19T05:33:14.333Z,10.81
2019-04-19T05:35:11.872Z,10.93
2019-04-19T05:36:13.790Z,11.02
2019-04-19T05:38:03.358Z,11.13
2019-04-19T05:39:08.045Z,11.19
2019-04-19T05:40:54.926Z,11.33
2019-04-19T05:41:56.495Z,11.39
2019-04-19T05:45:05.936Z,11.63
2019-04-19T05:46:50.225Z,11.70
2019-04-19T05:47:41.996Z,11.84
2019-04-19T05:49:37.777Z,12.03
2019-04-19T05:50:45.742Z,12.13
2019-04-19T05:52:28.893Z,12.52
2019-04-19T05:53:23.558Z,13.01
2019-04-19T05:55:05.067Z,13.91
2019-04-19T05:56:04.986Z,14.01
2019-04-19T05:58:12.908Z,13.83
2019-04-19T05:59:07.136Z,13.93
2019-04-19T06:01:02.774Z,14.09
2019-04-19T06:02:09.386Z,14.04
2019-04-19T06:03:58.626Z,14.21
2019-04-19T06:05:06.804Z,14.08
2019-04-19T06:06:56.472Z,14.11
2019-04-19T06:07:49.269Z,14.01
2019-04-19T06:09:28.802Z,14.27
2019-04-19T06:10:33.042Z,14.26
2019-04-19T06:12:26.804Z,15.64
2019-04-19T06:13:21.984Z,16.50
2019-04-19T06:15:41.965Z,17.63
2019-04-19T06:16:30.790Z,16.95
2019-04-19T06:18:24.517Z,17.40
2019-04-19T06:19:28.440Z,18.34
2019-04-19T06:21:17.301Z,18.72
2019-04-19T06:22:10.291Z,18.99
2019-04-19T06:24:17.643Z,19.53
2019-04-19T06:25:12.291Z,19.30
2019-04-19T06:27:13.301Z,20.50
2019-04-19T06:28:12.682Z,20.00
2019-04-19T06:30:06.475Z,21.05
2019-04-19T06:30:54.773Z,21.12
2019-04-19T06:32:50.478Z,21.55
2019-04-19T06:33:48.430Z,21.46
2019-04-19T06:35:33.041Z,20.50
2019-04-19T06:36:23.350Z,20.23
2019-04-19T06:38:16.340Z,20.68
2019-04-19T06:39:16.361Z,21.00
2019-04-19T06:41:13.593Z,20.33
2019-04-19T06:42:11.734Z,20.82
2019-04-19T06:44:13.754Z,20.22
2019-04-19T06:45:19.768Z,20.61
2019-04-19T06:47:06.167Z,21.58
2019-04-19T06:48:01.964Z,22.11
2019-04-19T06:49:48.788Z,21.82
2019-04-19T06:50:52.537Z,21.48
2019-04-19T06:52:41.157Z,20.56
2019-04-19T06:53:47.364Z,21.00
2019-04-19T06:55:36.636Z,22.20
2019-04-19T06:56:37.240Z,22.46
2019-04-19T06:58:33.095Z,21.43
2019-04-19T06:59:46.223Z,21.61
2019-04-19T07:01:30.151Z,21.64
2019-04-19T07:02:18.125Z,21.85
2019-04-19T07:04:10.785Z,22.74
2019-04-19T07:05:22.995Z,23.49
2019-04-19T07:07:22.089Z,24.12
2019-04-19T07:08:45.857Z,24.12
2019-04-19T07:10:24.954Z,21.05
2019-04-19T07:11:16.554Z,20.53
2019-04-19T07:13:04.896Z,21.43
2019-04-19T07:13:59.737Z,21.86
2019-04-19T07:16:09.054Z,23.45
2019-04-19T07:17:03.510Z,23.92
2019-04-19T07:18:48.739Z,24.16
2019-04-19T07:19:52.755Z,24.30
2019-04-19T07:21:43.709Z,25.09
2019-04-19T07:22:44.966Z,25.56
2019-04-19T07:25:03.566Z,25.61
2019-04-19T07:25:42.446Z,25.63
2019-04-19T07:27:27.084Z,25.53
2019-04-19T07:28:20.414Z,24.60
2019-04-19T07:30:06.890Z,24.46
2019-04-19T07:31:08.388Z,24.89
2019-04-19T07:33:05.290Z,24.51
2019-04-19T07:34:11.175Z,24.27
2019-04-19T07:36:12.041Z,24.02
2019-04-19T07:37:10.510Z,24.31
2019-04-19T07:39:03.318Z,24.97
2019-04-19T07:40:09.729Z,25.02
2019-04-19T07:41:52.278Z,25.67
2019-04-19T07:42:50.711Z,26.13
2019-04-19T07:44:38.917Z,26.66
2019-04-19T07:45:45.951Z,26.35
2019-04-19T07:47:30.460Z,26.61
2019-04-19T07:48:23.078Z,26.76
2019-04-19T07:50:19.783Z,26.84
2019-04-19T07:51:22.822Z,26.84
2019-04-19T07:53:08.306Z,26.49
2019-04-19T07:54:13.569Z,25.38
2019-04-19T07:56:12.350Z,24.15
2019-04-19T07:57:22.377Z,24.34
2019-04-19T07:59:18.065Z,25.09
2019-04-19T08:00:18.535Z,25.54
2019-04-19T08:05:09.861Z,24.08
2019-04-19T08:05:59.336Z,24.36
2019-04-19T08:08:30.176Z,24.92
2019-04-19T08:08:56.972Z,25.41
2019-04-19T08:11:58.591Z,26.31
2019-04-19T08:17:12.079Z,24.26
2019-04-19T08:17:42.058Z,24.18
2019-04-19T08:27:43.380Z,26.01
2019-04-19T08:28:49.882Z,26.04
2019-04-19T08:30:41.979Z,25.17
2019-04-19T08:31:32.307Z,25.09
2019-04-19T08:33:25.533Z,25.63
2019-04-19T08:34:28.847Z,26.12
2019-04-19T08:36:25.502Z,27.11
2019-04-19T08:37:26.565Z,27.72
2019-04-19T08:39:27.642Z,26.81
2019-04-19T08:40:30.387Z,26.41
2019-04-19T08:42:20.853Z,27.09
2019-04-19T08:43:30.354Z,27.68
2019-04-19T08:45:01.729Z,28.15
2019-04-19T08:45:56.064Z,27.98
2019-04-19T08:48:00.226Z,27.76
2019-04-19T08:48:54.449Z,27.16
2019-04-19T08:50:47.381Z,27.35
2019-04-19T08:51:42.295Z,27.49
2019-04-19T08:53:45.988Z,27.72
2019-04-19T08:54:56.269Z,28.18
2019-04-19T08:56:38.938Z,28.20
2019-04-19T08:57:29.147Z,27.84
2019-04-19T08:59:49.143Z,28.76
2019-04-19T09:00:44.989Z,28.06
2019-04-19T09:02:29.098Z,28.02
2019-04-19T09:03:39.053Z,27.86
2019-04-19T09:05:25.978Z,27.71
2019-04-19T09:07:17.049Z,28.06
2019-04-19T09:08:18.312Z,28.76
2019-04-19T09:09:19.738Z,28.08
2019-04-19T09:11:13.867Z,27.30
2019-04-19T09:12:16.362Z,27.03
2019-04-19T09:14:09.663Z,26.83
2019-04-19T09:15:03.884Z,27.16
2019-04-19T09:17:05.767Z,28.60
2019-04-19T09:18:19.286Z,28.77
2019-04-19T09:20:51.473Z,30.03
2019-04-19T09:22:35.823Z,28.38
2019-04-19T09:23:35.133Z,27.50
2019-04-19T09:25:24.533Z,27.61
2019-04-19T09:26:31.767Z,28.32
2019-04-19T09:28:36.527Z,28.51
2019-04-19T09:29:33.817Z,28.64
2019-04-19T09:31:18.215Z,28.18
2019-04-19T09:32:08.422Z,28.61
2019-04-19T09:34:01.667Z,28.24
2019-04-19T09:35:00.593Z,27.55
2019-04-19T09:36:58.180Z,27.34
2019-04-19T09:37:59.054Z,26.86
2019-04-19T09:39:50.117Z,27.35
2019-04-19T09:40:46.783Z,28.09
2019-04-19T09:42:43.274Z,29.02
2019-04-19T09:43:45.083Z,29.70
2019-04-19T09:45:25.405Z,30.46
2019-04-19T09:46:25.366Z,30.04
2019-04-19T09:48:37.910Z,29.91
2019-04-19T09:49:32.213Z,29.27
2019-04-19T09:51:30.147Z,27.86
2019-04-19T09:52:33.232Z,27.34
2019-04-19T09:54:26.646Z,27.83
2019-04-19T09:55:30.257Z,28.21
2019-04-19T09:57:15.748Z,28.42
2019-04-19T09:58:11.824Z,28.87
2019-04-19T09:59:57.101Z,28.45
2019-04-19T10:00:51.947Z,27.77
2019-04-19T10:02:48.289Z,27.05
2019-04-19T10:03:46.834Z,26.41
2019-04-19T10:05:33.407Z,25.31
2019-04-19T10:06:33.335Z,25.66
2019-04-19T10:08:28.020Z,27.12
2019-04-19T10:09:27.315Z,27.12
2019-04-19T10:11:19.116Z,28.13
2019-04-19T10:12:19.622Z,28.83
2019-04-19T10:14:13.242Z,29.36
2019-04-19T10:15:11.846Z,29.52
2019-04-19T10:17:05.478Z,28.46
2019-04-19T10:18:04.909Z,28.55
2019-04-19T10:19:57.151Z,29.10
2019-04-19T10:20:57.081Z,29.37
2019-04-19T10:22:50.878Z,29.71
2019-04-19T10:23:49.908Z,29.36
2019-04-19T10:25:47.837Z,29.95
2019-04-19T10:26:42.666Z,30.67
2019-04-19T10:28:35.413Z,29.39
2019-04-19T10:29:40.134Z,29.44
2019-04-19T10:31:29.388Z,29.67
2019-04-19T10:32:28.718Z,29.60
2019-04-19T10:34:20.921Z,29.70
2019-04-19T10:35:20.859Z,29.99
2019-04-19T10:37:13.659Z,30.01
2019-04-19T10:38:13.617Z,29.41
2019-04-19T10:40:07.764Z,28.72
2019-04-19T10:41:07.130Z,28.06
2019-04-19T10:42:59.141Z,26.65
2019-04-19T10:44:08.255Z,26.73
2019-04-19T10:45:52.145Z,27.09
2019-04-19T10:46:51.843Z,26.53
2019-04-19T10:48:56.332Z,26.84
2019-04-19T10:49:51.767Z,26.24
2019-04-19T10:51:37.622Z,25.96
2019-04-19T10:52:37.430Z,25.83
2019-04-19T10:54:30.730Z,25.12
2019-04-19T10:55:30.078Z,24.75
2019-04-19T10:57:23.250Z,24.66
2019-04-19T10:58:23.239Z,24.94
2019-04-19T11:00:15.783Z,24.39
2019-04-19T11:01:15.640Z,24.39
2019-04-19T11:03:08.764Z,23.78
2019-04-19T11:04:08.837Z,23.68
2019-04-19T11:06:02.880Z,23.97
2019-04-19T11:07:01.825Z,24.04
2019-04-19T11:08:54.680Z,24.15
2019-04-19T11:09:55.618Z,24.36
2019-04-19T11:11:47.657Z,24.33
2019-04-19T11:12:47.532Z,24.19
2019-04-19T11:14:40.104Z,24.21
2019-04-19T11:15:40.450Z,24.30
2019-04-19T11:17:33.809Z,24.24
2019-04-19T11:18:32.798Z,24.12
2019-04-19T11:20:34.622Z,24.04
2019-04-19T11:21:25.532Z,24.09
2019-04-19T11:23:19.519Z,24.11
2019-04-19T11:24:18.265Z,23.99
2019-04-19T11:26:11.056Z,23.89
2019-04-19T11:27:11.160Z,23.94
2019-04-19T11:29:03.928Z,24.06
2019-04-19T11:30:03.724Z,24.08
2019-04-19T11:31:57.562Z,23.72
2019-04-19T11:32:56.895Z,23.56
2019-04-19T11:34:49.683Z,23.38
2019-04-19T11:35:49.563Z,23.49
2019-04-19T11:37:42.663Z,23.47
2019-04-19T11:38:43.040Z,23.60
2019-04-19T11:40:35.364Z,23.77
2019-04-19T11:41:34.654Z,23.71
2019-04-19T11:43:27.649Z,23.21
2019-04-19T11:44:29.308Z,23.07
2019-04-19T11:46:20.260Z,23.18
2019-04-19T11:47:20.093Z,23.19
2019-04-19T11:49:22.902Z,23.37
2019-04-19T11:50:13.795Z,23.42
2019-04-19T11:52:08.091Z,23.59
2019-04-19T11:53:06.141Z,23.63
2019-04-19T11:54:58.331Z,23.60
2019-04-19T11:55:58.348Z,23.63
2019-04-19T11:57:52.427Z,23.44
2019-04-19T11:58:50.994Z,23.49
2019-04-19T12:00:43.805Z,23.45
2019-04-19T12:01:43.990Z,23.45
2019-04-19T12:03:39.893Z,23.44
2019-04-19T12:04:36.464Z,23.01
2019-04-19T12:06:30.042Z,23.12
2019-04-19T12:07:30.459Z,23.07
2019-04-19T12:09:22.658Z,22.89
2019-04-19T12:10:21.940Z,22.86
2019-04-19T12:12:15.018Z,22.96
2019-04-19T12:13:15.176Z,23.06
2019-04-19T12:15:08.377Z,23.16
2019-04-19T12:16:08.603Z,23.32
2019-04-19T12:18:00.249Z,23.53
2019-04-19T12:19:00.325Z,23.44
2019-04-19T12:20:53.294Z,23.25
2019-04-19T12:21:54.524Z,23.23
2019-04-19T12:23:46.654Z,23.14
2019-04-19T12:24:46.958Z,23.01
2019-04-19T12:26:39.686Z,22.88
2019-04-19T12:27:39.467Z,22.99
2019-04-19T12:29:38.709Z,23.03
2019-04-19T12:30:31.510Z,23.09
2019-04-19T12:32:25.422Z,23.26
2019-04-19T12:33:24.117Z,23.35
2019-04-19T12:35:18.396Z,23.32
2019-04-19T12:36:17.266Z,23.31
2019-04-19T12:38:10.273Z,23.25
2019-04-19T12:39:09.661Z,23.19
2019-04-19T12:41:03.774Z,23.25
2019-04-19T12:42:02.388Z,23.06
2019-04-19T12:43:56.083Z,22.88
2019-04-19T12:44:55.206Z,22.74
2019-04-19T12:46:48.732Z,22.78
2019-04-19T12:47:48.989Z,22.84
2019-04-19T12:49:50.952Z,23.09
2019-04-19T12:50:41.979Z,22.91
2019-04-19T12:52:33.693Z,22.67
2019-04-19T12:53:34.646Z,22.70
2019-04-19T12:55:26.428Z,23.00
2019-04-19T12:56:27.339Z,23.03
2019-04-19T12:58:19.711Z,22.96
2019-04-19T12:59:21.496Z,23.00
2019-04-19T13:01:12.327Z,23.03
2019-04-19T13:02:12.001Z,23.06
2019-04-19T13:04:04.851Z,22.93
2019-04-19T13:05:04.737Z,22.96
2019-04-19T13:06:58.626Z,22.96
2019-04-19T13:07:57.462Z,22.91
2019-04-19T13:09:50.923Z,22.84
2019-04-19T13:10:51.173Z,23.03
2019-04-19T13:12:44.019Z,22.72
2019-04-19T13:13:43.711Z,22.69
2019-04-19T13:15:36.387Z,22.75
2019-04-19T13:16:36.593Z,22.84
2019-04-19T13:18:30.028Z,22.97
2019-04-19T13:19:29.160Z,22.88
2019-04-19T13:21:21.968Z,22.86
2019-04-19T13:22:22.766Z,22.85
2019-04-19T13:24:16.196Z,22.86
2019-04-19T13:25:16.463Z,22.85
2019-04-19T13:27:07.546Z,22.94
2019-04-19T13:28:07.918Z,23.07
2019-04-19T13:30:12.124Z,23.04
2019-04-19T13:31:01.380Z,23.07
2019-04-19T13:32:54.364Z,22.94
2019-04-19T13:33:53.325Z,22.81
2019-04-19T13:35:46.197Z,22.59
2019-04-19T13:36:47.461Z,22.56
2019-04-19T13:38:39.197Z,22.48
2019-04-19T13:39:38.348Z,22.46
2019-04-19T13:41:30.543Z,22.72
2019-04-19T13:42:30.825Z,22.89
2019-04-19T13:44:23.300Z,23.00
2019-04-19T13:45:29.314Z,23.09
2019-04-19T13:47:16.544Z,23.14
2019-04-19T13:48:16.727Z,23.14
2019-04-19T13:50:19.317Z,22.72
2019-04-19T13:51:09.195Z,22.63
2019-04-19T13:53:02.526Z,22.42
2019-04-19T13:54:02.783Z,22.39
2019-04-19T13:55:54.904Z,22.64
2019-04-19T13:56:55.520Z,22.52
2019-04-19T13:58:47.672Z,22.56
2019-04-19T13:59:55.682Z,22.46
2019-04-19T14:01:40.645Z,22.44
2019-04-19T14:02:41.152Z,22.63
2019-04-19T14:04:33.544Z,22.79
2019-04-19T14:05:34.093Z,22.94
2019-04-19T14:07:25.777Z,23.22
2019-04-19T14:08:28.230Z,23.31
2019-04-19T14:10:19.113Z,23.23
2019-04-19T14:11:19.374Z,23.35
2019-04-19T14:13:11.301Z,23.45
2019-04-19T14:14:12.052Z,23.31
2019-04-19T14:16:05.106Z,23.16
2019-04-19T14:17:06.039Z,23.11
2019-04-19T14:18:58.453Z,23.04
2019-04-19T14:19:58.630Z,22.78
2019-04-19T14:21:50.969Z,22.52
2019-04-19T14:22:51.797Z,22.51
2019-04-19T14:24:43.443Z,22.69
2019-04-19T14:25:43.370Z,22.88
2019-04-19T14:27:37.482Z,22.85
2019-04-19T14:28:36.164Z,22.85
2019-04-19T14:30:29.239Z,22.89
2019-04-19T14:31:30.266Z,22.94
2019-04-19T14:33:23.094Z,23.15
2019-04-19T14:34:21.820Z,23.19
2019-04-19T14:36:15.919Z,23.22
2019-04-19T14:37:16.138Z,23.12
2019-04-19T14:39:08.739Z,22.89
2019-04-19T14:40:07.484Z,22.78
2019-04-19T14:42:38.364Z,22.72
2019-04-19T14:43:38.522Z,22.84
2019-04-19T14:45:30.515Z,22.94
2019-04-19T14:46:30.425Z,22.81
2019-04-19T14:48:29.329Z,22.72
2019-04-19T14:49:23.099Z,22.70
2019-04-19T14:51:24.039Z,22.42
2019-04-19T14:52:16.211Z,22.48
2019-04-19T14:54:08.997Z,22.61
2019-04-19T14:55:09.979Z,22.63
2019-04-19T14:57:01.447Z,22.70
2019-04-19T14:58:01.282Z,22.70
2019-04-19T14:59:54.662Z,22.74
2019-04-19T15:00:54.833Z,22.94
2019-04-19T15:02:48.947Z,22.79
2019-04-19T15:03:46.787Z,22.70
2019-04-19T15:05:39.742Z,22.76
2019-04-19T15:06:39.768Z,22.84
2019-04-19T15:08:34.416Z,22.85
2019-04-19T15:09:33.312Z,22.93
2019-04-19T15:11:27.624Z,22.74
2019-04-19T15:12:26.894Z,22.76
2019-04-19T15:14:20.707Z,22.75
2019-04-19T15:15:19.646Z,22.81
2019-04-19T15:17:13.575Z,22.88
2019-04-19T15:18:13.124Z,22.75
2019-04-19T15:20:05.801Z,22.76
2019-04-19T15:21:13.054Z,22.61
2019-04-19T15:22:58.385Z,22.56
2019-04-19T15:23:58.665Z,22.63
2019-04-19T15:25:51.179Z,22.63
2019-04-19T15:26:51.047Z,22.64
2019-04-19T15:28:44.753Z,22.70
2019-04-19T15:29:45.047Z,22.67
2019-04-19T15:31:36.830Z,22.76
2019-04-19T15:32:38.221Z,22.78
2019-04-19T15:34:29.668Z,22.82
2019-04-19T15:35:29.758Z,22.81
2019-04-19T15:37:23.183Z,22.75
2019-04-19T15:38:22.197Z,22.64
2019-04-19T15:40:16.077Z,22.63
2019-04-19T15:41:16.317Z,22.67
2019-04-19T15:43:08.803Z,22.64
2019-04-19T15:44:08.549Z,22.64
2019-04-19T15:46:01.305Z,22.54
2019-04-19T15:47:04.176Z,22.44
2019-04-19T15:48:56.765Z,22.49
2019-04-19T15:49:53.779Z,22.52
2019-04-19T15:51:47.866Z,22.33
2019-04-19T15:52:48.055Z,22.30
2019-04-19T15:54:39.479Z,22.29
2019-04-19T15:55:39.930Z,22.29
2019-04-19T15:57:32.582Z,22.29
2019-04-19T15:58:32.967Z,22.30
2019-04-19T16:00:25.828Z,22.30
2019-04-19T16:01:27.813Z,22.33
2019-04-19T16:03:18.186Z,22.21
2019-04-19T16:04:17.773Z,22.29
2019-04-19T16:06:11.891Z,22.26
2019-04-19T16:07:10.610Z,22.35
2019-04-19T16:09:03.266Z,22.26
2019-04-19T16:10:08.500Z,22.30
2019-04-19T16:11:56.466Z,22.26
2019-04-19T16:12:55.870Z,22.20
2019-04-19T16:14:48.052Z,22.24
2019-04-19T16:15:48.275Z,22.29
2019-04-19T16:17:41.858Z,22.23
2019-04-19T16:18:40.719Z,22.21
2019-04-19T16:20:33.729Z,22.06
2019-04-19T16:21:41.546Z,22.05
2019-04-19T16:23:26.480Z,21.89
2019-04-19T16:24:27.242Z,21.93
2019-04-19T16:26:19.285Z,21.89
2019-04-19T16:27:19.221Z,21.89
2019-04-19T16:29:24.654Z,21.85
2019-04-19T16:30:12.290Z,21.90
2019-04-19T16:32:04.970Z,21.77
2019-04-19T16:33:04.809Z,21.89
2019-04-19T16:34:57.693Z,21.81
2019-04-19T16:35:58.614Z,21.85
2019-04-19T16:37:51.273Z,21.85
2019-04-19T16:38:50.999Z,21.83
2019-04-19T16:40:43.234Z,21.82
2019-04-19T16:41:43.049Z,21.81
2019-04-19T16:43:35.841Z,21.66
2019-04-19T16:44:36.305Z,21.64
2019-04-19T16:46:30.591Z,21.63
2019-04-19T16:47:29.238Z,21.61
2019-04-19T16:49:22.576Z,21.58
2019-04-19T16:50:21.224Z,21.43
2019-04-19T16:52:15.080Z,21.40
2019-04-19T16:53:13.979Z,21.53
2019-04-19T16:55:07.302Z,21.43
2019-04-19T16:56:07.794Z,21.45
2019-04-19T16:58:00.808Z,21.37
2019-04-19T16:59:01.404Z,21.34
2019-04-19T17:00:52.559Z,21.30
2019-04-19T17:01:52.629Z,21.21
2019-04-19T17:03:45.778Z,21.30
2019-04-19T17:04:45.005Z,21.21
2019-04-19T17:06:38.389Z,21.11
2019-04-19T17:07:37.733Z,21.09
2019-04-19T17:09:31.040Z,21.08
2019-04-19T17:10:30.910Z,21.06
2019-04-19T17:12:24.247Z,21.05
2019-04-19T17:13:24.551Z,21.01
2019-04-19T17:15:16.934Z,20.91
2019-04-19T17:16:16.004Z,20.91
2019-04-19T17:18:09.013Z,20.88
2019-04-19T17:19:08.857Z,20.75
2019-04-19T17:21:01.751Z,20.72
2019-04-19T17:22:08.997Z,20.76
2019-04-19T17:23:55.274Z,20.72
2019-04-19T17:24:54.757Z,20.76
2019-04-19T17:26:46.988Z,20.58
2019-04-19T17:27:47.240Z,20.54
2019-04-19T17:29:40.897Z,20.46
2019-04-19T17:30:40.161Z,20.38
2019-04-19T17:32:32.564Z,20.37
2019-04-19T17:33:32.568Z,20.22
2019-04-19T17:35:25.947Z,20.16
2019-04-19T17:36:26.057Z,20.16
2019-04-19T17:38:31.219Z,20.01
2019-04-19T17:39:17.956Z,19.97
2019-04-19T17:41:10.941Z,19.95
2019-04-19T17:42:10.771Z,19.95
2019-04-19T17:44:03.717Z,19.79
2019-04-19T17:45:03.549Z,19.80
2019-04-19T17:46:56.553Z,19.70
2019-04-19T17:47:56.618Z,19.64
2019-04-19T17:49:50.148Z,19.52
2019-04-19T17:50:49.171Z,19.35
2019-04-19T17:52:42.320Z,19.34
2019-04-19T17:53:46.838Z,19.32
2019-04-19T17:55:41.145Z,19.28
2019-04-19T17:56:35.377Z,19.21
2019-04-19T17:58:27.574Z,19.06
2019-04-19T17:59:27.978Z,19.17
2019-04-19T18:01:20.321Z,19.02
2019-04-19T18:02:21.264Z,18.97
2019-04-19T18:04:13.328Z,18.93
2019-04-19T18:05:13.942Z,18.79
2019-04-19T18:07:06.754Z,18.82
2019-04-19T18:08:06.426Z,18.76
2019-04-19T18:10:03.940Z,18.84
2019-04-19T18:10:59.536Z,18.71
2019-04-19T18:12:51.385Z,18.47
2019-04-19T18:13:51.167Z,18.51
2019-04-19T18:15:44.716Z,18.53
2019-04-19T18:16:44.895Z,18.51
2019-04-19T18:18:44.210Z,18.42
2019-04-19T18:19:39.891Z,18.29
2019-04-19T18:21:33.354Z,18.16
2019-04-19T18:22:42.483Z,18.13
2019-04-19T18:24:27.225Z,17.95
2019-04-19T18:25:22.218Z,17.92
2019-04-19T18:27:19.931Z,17.80
2019-04-19T18:28:16.668Z,17.71
2019-04-19T18:30:10.113Z,17.62
2019-04-19T18:31:09.464Z,17.66
2019-04-19T18:33:02.017Z,17.65
2019-04-19T18:34:06.753Z,17.66
2019-04-19T18:36:01.989Z,17.54
2019-04-19T18:36:55.980Z,17.53
2019-04-19T18:38:46.283Z,17.46
2019-04-19T18:39:45.961Z,17.39
2019-04-19T18:41:39.103Z,17.24
2019-04-19T18:42:50.109Z,17.14
2019-04-19T18:44:39.002Z,16.98
2019-04-19T18:45:36.865Z,16.88
2019-04-19T18:47:25.017Z,16.67
2019-04-19T18:48:24.294Z,16.63
2019-04-19T18:50:18.172Z,16.67
2019-04-19T18:51:20.735Z,16.72
2019-04-19T18:53:18.988Z,16.65
2019-04-19T18:54:18.923Z,16.69
2019-04-19T18:56:10.508Z,16.59
2019-04-19T18:57:04.869Z,16.52
2019-04-19T18:59:01.674Z,16.50
2019-04-19T18:59:58.766Z,16.48
2019-04-19T19:01:49.521Z,16.41
2019-04-19T19:02:53.001Z,16.42
2019-04-19T19:04:41.167Z,16.44
2019-04-19T19:05:45.607Z,16.34
2019-04-19T19:07:34.707Z,16.30
2019-04-19T19:08:43.371Z,16.29
2019-04-19T19:10:36.590Z,16.13
2019-04-19T19:11:27.925Z,16.16
2019-04-19T19:13:25.628Z,16.13
2019-04-19T19:14:21.516Z,15.99
2019-04-19T19:16:18.644Z,15.89
2019-04-19T19:17:16.560Z,15.89
2019-04-19T19:19:08.741Z,15.88
2019-04-19T19:20:11.485Z,15.89
2019-04-19T19:21:58.107Z,15.91
2019-04-19T19:23:09.357Z,15.85
2019-04-19T19:25:11.244Z,15.77
2019-04-19T19:26:07.248Z,15.78
2019-04-19T19:27:44.050Z,15.60
2019-04-19T19:28:44.247Z,15.68
2019-04-19T19:30:35.860Z,15.68
2019-04-19T19:31:36.720Z,15.62
2019-04-19T19:33:35.392Z,15.67
2019-04-19T19:34:30.235Z,15.71
2019-04-19T19:36:23.338Z,15.60
2019-04-19T19:37:26.732Z,15.48
2019-04-19T19:40:25.550Z,15.38
2019-04-19T19:42:05.557Z,15.51
2019-04-19T19:43:27.315Z,15.46
2019-04-19T19:45:17.914Z,15.46
2019-04-19T19:46:23.092Z,15.40
2019-04-19T19:48:12.726Z,15.35
2019-04-19T19:49:37.295Z,15.35
2019-04-19T19:51:05.041Z,15.38
2019-04-19T19:51:53.806Z,15.34
2019-04-19T19:54:13.161Z,15.22
2019-04-19T19:54:57.495Z,15.33
2019-04-19T19:56:48.838Z,15.16
2019-04-19T19:57:42.975Z,15.03
2019-04-19T19:59:29.105Z,15.04
2019-04-19T20:00:35.813Z,15.00
2019-04-19T20:02:28.024Z,15.00
2019-04-19T20:03:22.398Z,14.90
2019-04-19T20:05:12.172Z,14.93
2019-04-19T20:06:15.795Z,14.83
2019-04-19T20:08:01.601Z,14.82
2019-04-19T20:09:08.947Z,14.79
2019-04-19T20:10:54.854Z,14.53
2019-04-19T20:11:56.239Z,14.53
2019-04-19T20:13:49.992Z,14.49
2019-04-19T20:14:47.241Z,14.53
2019-04-19T20:16:39.947Z,14.35
2019-04-19T20:17:45.503Z,14.41
2019-04-19T20:19:33.081Z,14.35
2019-04-19T20:20:36.173Z,14.46
2019-04-19T20:22:27.889Z,14.45
2019-04-19T20:23:31.828Z,14.39
2019-04-19T20:25:28.832Z,14.48
2019-04-19T20:26:26.342Z,14.30
2019-04-19T20:28:14.165Z,14.41
2019-04-19T20:29:20.113Z,14.45
2019-04-19T20:31:05.371Z,14.41
2019-04-19T20:32:11.149Z,14.30
2019-04-19T20:34:00.133Z,14.26
2019-04-19T20:34:59.392Z,14.23
2019-04-19T20:36:49.344Z,14.23
2019-04-19T20:37:53.382Z,14.09
2019-04-19T20:39:44.759Z,13.91
2019-04-19T20:40:49.308Z,13.87
2019-04-19T20:43:01.403Z,13.81
2019-04-19T20:43:47.286Z,13.80
2019-04-19T20:45:36.887Z,13.71
2019-04-19T20:46:28.640Z,13.73
2019-04-19T20:48:23.234Z,13.66
2019-04-19T20:49:19.376Z,13.80
2019-04-19T20:51:23.181Z,13.69
2019-04-19T20:52:25.264Z,13.69
2019-04-19T20:54:24.223Z,13.54
2019-04-19T20:55:25.030Z,13.39
2019-04-19T20:58:09.668Z,13.51
2019-04-19T20:59:55.305Z,13.38
2019-04-19T21:00:50.756Z,13.36
2019-04-19T21:02:44.004Z,13.54
2019-04-19T21:03:43.656Z,13.48